バルセロナ の空港の天気 - METARとTAF

バルセロナ・エル・プラット国際空港 ( LEBL / BCN ) - スペイン バルセロナ
飛行場実況気象(Metar)
観測時間07/02 14:00 CEST (07/02 12:00 UTC)
風向・風速南南西 7m/s
視程10km以上
天気現象
少しの雲 雲底高度 1070m
気温28℃
湿度70%
気圧1014hPa
METARLEBL 021200Z 20013KT 9999 FEW035 28/22 Q1014 NOSIG
過去の天気等 Google飛行場航空写真 Wunderground天気予報

過去48時間のMETAR

飛行場予報(TAF)
発表時間: 7/02 13:00 CEST (7/02 11:00 UTC)
予報対象時間: 2日14時 CEST ~ 3日14時 CEST
風向・風速南 4m/s
視程10km以上
少しの雲 雲底高度 460m
2日14時 CEST ~ 2日16時 CEST に徐々に
風向・風速東南東 5m/s
2日23時 CEST ~ 3日1時 CEST に徐々に
風向・風速不定 2m/s
TAF LEBL 021100Z 0212/0312 18008KT 9999 FEW015 TX29/0212Z TN22/0306Z
BECMG 0212/0214 12010KT
BECMG 0221/0223 VRB04KT